Time;durP1;ratioP1;P1;durP2;ratioP2;P2;SDS_P1;SDS_P2;PMS_P1;PMS_P2;Temp;Humidity;BMP_temperature;BMP_pressure;BME280_temperature;BME280_humidity;BME280_pressure;Samples;Min_cycle;Max_cycle;Signal;HPM_P1;HPM_P2
2022/07/15 00:01:16;;;;;;;4.23;0.90;;;15.30;99.90;;;;;;5004118;28;21176;-89
2022/07/15 00:03:42;;;;;;;1.73;0.33;;;15.20;99.90;;;;;;5005110;28;20218;-89
2022/07/15 00:06:07;;;;;;;2.83;0.60;;;15.10;99.90;;;;;;5021679;28;20251;-89
2022/07/15 00:08:33;;;;;;;0.93;0.40;;;15.00;99.90;;;;;;5021422;28;20222;-89
2022/07/15 00:10:59;;;;;;;1.70;0.53;;;14.90;99.90;;;;;;4981587;28;1146317;-89
2022/07/15 00:13:25;;;;;;;3.10;0.73;;;14.90;99.90;;;;;;5007164;28;20241;-89
2022/07/15 00:15:51;;;;;;;5.10;0.80;;;14.80;99.90;;;;;;5003896;28;20215;-89
2022/07/15 00:18:17;;;;;;;0.77;0.40;;;14.80;99.90;;;;;;5005950;28;20321;-88
2022/07/15 00:20:42;;;;;;;1.37;0.73;;;14.70;99.90;;;;;;5013582;28;20778;-88
2022/07/15 00:23:09;;;;;;;2.57;0.60;;;14.70;99.90;;;;;;5004370;28;20209;-89
2022/07/15 00:25:35;;;;;;;0.77;0.60;;;14.60;99.90;;;;;;5022599;28;20322;-89
2022/07/15 00:28:04;;;;;;;1.53;0.30;;;14.70;99.90;;;;;;5020545;28;20323;-92
2022/07/15 00:30:34;;;;;;;0.87;0.33;;;14.70;99.90;;;;;;5001601;28;20211;-89
2022/07/15 00:33:01;;;;;;;1.80;0.70;;;14.70;99.90;;;;;;5010900;28;20215;-88
2022/07/15 00:35:32;;;;;;;0.77;0.60;;;14.80;99.90;;;;;;5001882;28;20219;-89
2022/07/15 00:37:58;;;;;;;2.53;0.30;;;14.90;99.90;;;;;;5017669;28;20187;-88
2022/07/15 00:40:24;;;;;;;0.20;0.20;;;14.90;99.90;;;;;;5004634;28;20191;-90
2022/07/15 00:42:50;;;;;;;0.73;0.30;;;14.90;99.90;;;;;;5004492;28;20251;-90
2022/07/15 00:45:22;;;;;;;1.20;0.53;;;14.90;99.90;;;;;;5001196;28;20299;-90
2022/07/15 00:47:56;;;;;;;5.20;0.57;;;14.90;99.90;;;;;;5002770;28;20232;-90
2022/07/15 00:50:26;;;;;;;1.50;0.20;;;14.90;99.90;;;;;;5001182;28;20226;-89
2022/07/15 00:53:03;;;;;;;1.23;0.23;;;14.90;99.90;;;;;;5001840;28;20188;-90
2022/07/15 00:55:31;;;;;;;0.17;0.17;;;14.90;99.90;;;;;;4998813;28;20239;-90
2022/07/15 00:58:04;;;;;;;0.40;0.40;;;14.90;99.90;;;;;;4983963;28;20227;-90
2022/07/15 01:00:31;;;;;;;0.20;0.20;;;14.80;99.90;;;;;;4991249;28;20219;-90
2022/07/15 01:02:59;;;;;;;1.03;0.47;;;14.70;99.90;;;;;;4999260;28;20443;-89
2022/07/15 01:05:25;;;;;;;0.20;0.20;;;14.60;99.90;;;;;;4991736;28;20234;-90
2022/07/15 01:07:51;;;;;;;0.20;0.20;;;14.50;99.90;;;;;;5000666;28;20215;-90
2022/07/15 01:10:18;;;;;;;0.20;0.20;;;14.50;99.90;;;;;;5013154;28;20237;-90
2022/07/15 01:12:46;;;;;;;1.07;0.83;;;14.40;99.90;;;;;;5021043;28;20268;-90
2022/07/15 01:15:12;;;;;;;1.37;0.37;;;14.40;99.90;;;;;;5036352;28;20303;-90
2022/07/15 01:17:38;;;;;;;0.80;0.30;;;14.40;99.90;;;;;;5023537;28;20214;-90
2022/07/15 01:20:05;;;;;;;0.20;0.20;;;14.40;99.90;;;;;;5021065;28;20264;-90
2022/07/15 01:22:31;;;;;;;0.43;0.30;;;14.30;99.90;;;;;;5004743;28;20183;-90
2022/07/15 01:24:58;;;;;;;0.27;0.27;;;14.20;99.90;;;;;;5003894;28;20211;-90
2022/07/15 01:27:25;;;;;;;0.10;0.10;;;14.10;99.90;;;;;;5003307;28;20215;-89
2022/07/15 01:29:51;;;;;;;3.40;0.60;;;14.10;99.90;;;;;;5017332;28;20210;-89
2022/07/15 01:32:17;;;;;;;0.33;0.33;;;14.10;99.90;;;;;;5015603;28;21223;-90
2022/07/15 01:34:42;;;;;;;0.17;0.17;;;14.00;99.90;;;;;;5018448;28;20183;-90
2022/07/15 01:37:08;;;;;;;0.70;0.47;;;13.90;99.90;;;;;;5018916;28;20249;-90
2022/07/15 01:39:34;;;;;;;0.20;0.20;;;13.90;99.90;;;;;;5019791;28;20573;-90
2022/07/15 01:42:00;;;;;;;0.53;0.13;;;13.90;99.90;;;;;;5005595;28;20614;-90
2022/07/15 01:44:26;;;;;;;0.40;0.40;;;13.90;99.90;;;;;;5020047;28;20763;-90
2022/07/15 01:46:51;;;;;;;0.03;0.03;;;13.90;99.90;;;;;;5003747;28;20178;-91
2022/07/15 01:49:26;;;;;;;1.30;0.30;;;13.90;99.90;;;;;;5020351;28;20227;-90
2022/07/15 01:51:57;;;;;;;0.13;0.13;;;13.90;99.90;;;;;;5004446;28;20214;-90
2022/07/15 01:54:24;;;;;;;0.30;0.17;;;13.90;99.90;;;;;;5024697;28;20226;-90
2022/07/15 01:56:53;;;;;;;0.10;0.10;;;14.00;99.90;;;;;;5030524;28;20243;-90
2022/07/15 01:59:24;;;;;;;4.10;0.30;;;14.00;99.90;;;;;;5020257;28;20684;-90
2022/07/15 02:01:55;;;;;;;1.03;0.20;;;13.90;99.90;;;;;;5005748;28;20635;-90
2022/07/15 02:04:21;;;;;;;0.20;0.20;;;13.90;99.90;;;;;;5035763;28;20574;-90
2022/07/15 02:06:48;;;;;;;7.67;0.40;;;13.80;99.90;;;;;;5021532;28;20309;-90
2022/07/15 02:09:14;;;;;;;0.20;0.20;;;13.80;99.90;;;;;;5021691;28;20226;-90
2022/07/15 02:11:40;;;;;;;2.23;0.40;;;13.90;99.90;;;;;;5021679;28;20587;-90
2022/07/15 02:14:06;;;;;;;0.53;0.50;;;13.90;99.90;;;;;;5020565;28;20194;-90
2022/07/15 02:16:33;;;;;;;0.10;0.10;;;13.90;99.90;;;;;;5020158;28;20187;-90
2022/07/15 02:19:00;;;;;;;0.10;0.10;;;14.00;99.90;;;;;;5019481;28;20240;-91
2022/07/15 02:21:26;;;;;;;0.10;0.10;;;14.10;99.90;;;;;;5021104;28;20760;-90
2022/07/15 02:23:57;;;;;;;0.23;0.20;;;14.20;99.90;;;;;;5019511;28;20215;-90
2022/07/15 02:26:23;;;;;;;2.33;0.50;;;14.30;99.90;;;;;;5019469;28;20306;-90
2022/07/15 02:28:49;;;;;;;0.23;0.23;;;14.40;99.90;;;;;;5021568;28;20617;-90
2022/07/15 02:31:15;;;;;;;0.43;0.20;;;14.50;99.90;;;;;;5018036;28;20215;-90
2022/07/15 02:33:44;;;;;;;0.87;0.37;;;14.50;99.90;;;;;;5005085;28;20203;-90
2022/07/15 02:36:10;;;;;;;0.30;0.30;;;14.60;99.90;;;;;;5021461;28;20298;-90
2022/07/15 02:38:36;;;;;;;0.20;0.17;;;14.60;99.90;;;;;;5004176;28;20222;-90
2022/07/15 02:41:02;;;;;;;0.10;0.10;;;14.60;99.90;;;;;;5019906;28;20879;-90
2022/07/15 02:43:28;;;;;;;0.93;0.20;;;14.50;99.90;;;;;;5006294;28;20187;-90
2022/07/15 02:45:55;;;;;;;0.20;0.20;;;14.40;99.90;;;;;;5022428;28;20212;-90
2022/07/15 02:48:21;;;;;;;0.47;0.40;;;14.30;99.90;;;;;;5030846;28;20245;-90
2022/07/15 02:50:47;;;;;;;0.10;0.10;;;14.20;99.90;;;;;;5022965;28;20219;-89
2022/07/15 02:53:13;;;;;;;0.30;0.20;;;14.10;99.90;;;;;;5006009;28;20179;-89
2022/07/15 02:55:39;;;;;;;0.00;0.00;;;14.10;99.90;;;;;;5020919;28;20187;-89
2022/07/15 02:58:05;;;;;;;0.20;0.20;;;14.10;99.90;;;;;;5005699;28;20215;-90
2022/07/15 03:00:32;;;;;;;0.20;0.20;;;14.00;99.90;;;;;;5006290;28;20556;-90
2022/07/15 03:02:57;;;;;;;0.43;0.37;;;13.80;99.90;;;;;;5021231;28;20243;-90
2022/07/15 03:05:23;;;;;;;1.97;0.20;;;13.80;99.90;;;;;;5007218;28;20258;-90
2022/07/15 03:07:49;;;;;;;2.47;0.30;;;13.80;99.90;;;;;;5024858;28;20233;-90
2022/07/15 03:10:15;;;;;;;1.93;0.40;;;13.80;99.90;;;;;;5005224;28;20234;-90
2022/07/15 03:12:41;;;;;;;0.20;0.20;;;13.80;99.90;;;;;;5022253;28;20302;-90
2022/07/15 03:15:07;;;;;;;0.30;0.30;;;13.80;99.90;;;;;;5023920;28;20694;-89
2022/07/15 03:17:33;;;;;;;5.87;0.37;;;13.80;99.90;;;;;;5040267;28;20204;-90
2022/07/15 03:19:59;;;;;;;1.20;0.33;;;13.80;99.90;;;;;;5006570;28;20208;-89
2022/07/15 03:22:27;;;;;;;0.40;0.30;;;13.80;99.90;;;;;;5021601;28;20190;-90
2022/07/15 03:24:53;;;;;;;0.80;0.30;;;13.80;99.90;;;;;;5020616;28;20587;-91
2022/07/15 03:27:19;;;;;;;0.20;0.20;;;13.90;99.90;;;;;;5018287;28;20249;-90
2022/07/15 03:29:45;;;;;;;0.77;0.27;;;14.00;99.90;;;;;;5002308;28;20213;-90
2022/07/15 03:32:11;;;;;;;0.10;0.10;;;14.10;99.90;;;;;;5018924;28;20187;-90
2022/07/15 03:34:37;;;;;;;1.03;0.20;;;14.20;99.90;;;;;;5024405;28;20183;-91
2022/07/15 03:37:03;;;;;;;0.20;0.20;;;14.30;99.90;;;;;;5021522;28;20583;-91
2022/07/15 03:39:29;;;;;;;0.20;0.20;;;14.30;99.90;;;;;;5022729;28;20244;-91
2022/07/15 03:41:55;;;;;;;0.30;0.30;;;14.30;99.90;;;;;;5007878;28;20291;-91
2022/07/15 03:44:21;;;;;;;0.30;0.30;;;14.30;99.90;;;;;;5008340;28;20207;-91
2022/07/15 03:46:47;;;;;;;1.37;0.43;;;14.40;99.90;;;;;;5025595;28;21032;-91
2022/07/15 03:49:13;;;;;;;0.23;0.23;;;14.40;99.90;;;;;;5024578;28;20243;-91
2022/07/15 03:51:39;;;;;;;0.27;0.27;;;14.50;99.90;;;;;;5022299;28;20250;-91
2022/07/15 03:54:06;;;;;;;0.70;0.70;;;14.50;99.90;;;;;;5028208;28;20243;-93
2022/07/15 03:56:33;;;;;;;3.10;0.30;;;14.60;99.90;;;;;;4992190;28;20242;-92
2022/07/15 03:58:59;;;;;;;0.10;0.10;;;14.60;99.90;;;;;;4985224;28;20714;-91
2022/07/15 04:01:25;;;;;;;1.03;0.93;;;14.70;99.90;;;;;;5000826;28;20215;-92
2022/07/15 04:03:52;;;;;;;1.30;0.20;;;14.70;99.90;;;;;;5001060;28;20227;-91
2022/07/15 04:06:19;;;;;;;2.13;0.50;;;14.70;99.90;;;;;;5005032;28;20249;-90
2022/07/15 04:08:46;;;;;;;0.57;0.57;;;14.70;99.90;;;;;;5003405;28;20310;-91
2022/07/15 04:11:12;;;;;;;3.20;0.80;;;14.80;99.90;;;;;;5004496;28;20247;-90
2022/07/15 04:13:39;;;;;;;0.30;0.30;;;14.90;99.90;;;;;;5012124;28;20194;-91
2022/07/15 04:16:06;;;;;;;2.80;0.50;;;14.90;99.90;;;;;;5010499;28;20210;-90
2022/07/15 04:18:32;;;;;;;1.70;0.67;;;15.00;99.90;;;;;;4986823;28;20314;-90
2022/07/15 04:20:58;;;;;;;0.57;0.50;;;15.00;99.90;;;;;;5004204;28;20316;-90
2022/07/15 04:23:24;;;;;;;0.20;0.20;;;15.00;99.90;;;;;;4969370;28;20207;-89
2022/07/15 04:25:54;;;;;;;1.60;0.30;;;15.10;99.90;;;;;;4986725;28;20188;-90
2022/07/15 04:28:24;;;;;;;1.90;0.50;;;15.10;99.90;;;;;;4987252;28;20714;-90
2022/07/15 04:30:51;;;;;;;1.03;0.37;;;15.10;99.90;;;;;;5010768;28;20721;-90
2022/07/15 04:33:16;;;;;;;0.73;0.20;;;15.10;99.90;;;;;;4969825;28;20291;-90
2022/07/15 04:35:42;;;;;;;0.10;0.10;;;15.10;99.90;;;;;;4986115;28;20342;-90
2022/07/15 04:38:09;;;;;;;0.33;0.33;;;15.10;99.90;;;;;;4986643;28;20191;-91
2022/07/15 04:40:35;;;;;;;1.13;0.40;;;15.20;99.90;;;;;;4970448;28;20206;-91
2022/07/15 04:43:03;;;;;;;0.67;0.20;;;15.10;99.90;;;;;;5001742;28;20220;-91
2022/07/15 04:45:29;;;;;;;0.43;0.43;;;15.20;99.90;;;;;;5003793;28;20227;-91
2022/07/15 04:47:55;;;;;;;0.37;0.37;;;15.30;99.90;;;;;;4984598;28;20216;-90
2022/07/15 04:53:05;;;;;;;0.37;0.37;;;15.30;99.90;;;;;;5001140;28;20260;-90
2022/07/15 04:55:31;;;;;;;0.93;0.30;;;15.40;99.90;;;;;;4970106;28;20179;-90
2022/07/15 04:57:57;;;;;;;1.07;0.80;;;15.50;99.90;;;;;;4986340;28;20223;-90
2022/07/15 05:00:23;;;;;;;3.23;0.37;;;15.50;99.90;;;;;;4984483;28;20211;-90
2022/07/15 05:02:49;;;;;;;0.73;0.50;;;15.60;99.90;;;;;;4984432;28;20221;-90
2022/07/15 05:05:15;;;;;;;0.73;0.30;;;15.70;99.90;;;;;;4984672;28;20187;-90
2022/07/15 05:07:41;;;;;;;0.20;0.20;;;15.70;99.90;;;;;;5002100;28;20214;-91
2022/07/15 05:10:09;;;;;;;1.23;0.33;;;15.70;99.90;;;;;;5000223;28;20232;-90
2022/07/15 05:12:35;;;;;;;8.20;0.60;;;15.80;99.90;;;;;;5009100;28;20223;-89
2022/07/15 05:15:02;;;;;;;1.80;0.80;;;15.90;99.90;;;;;;4997296;28;20215;-91
2022/07/15 05:17:27;;;;;;;0.70;0.40;;;16.00;99.90;;;;;;5010226;28;20650;-90
2022/07/15 05:19:53;;;;;;;0.40;0.40;;;16.10;99.90;;;;;;4982657;28;20275;-91
2022/07/15 05:22:19;;;;;;;2.43;0.40;;;16.30;99.90;;;;;;4981819;28;20212;-90
2022/07/15 05:24:46;;;;;;;0.20;0.13;;;16.70;99.90;;;;;;4981725;28;20266;-90
2022/07/15 05:27:12;;;;;;;0.20;0.20;;;17.00;99.90;;;;;;4998168;28;20220;-90
2022/07/15 05:29:38;;;;;;;0.20;0.20;;;18.70;99.90;;;;;;4981820;28;20234;-91
2022/07/15 05:32:04;;;;;;;0.30;0.30;;;20.40;99.90;;;;;;4964462;28;20199;-90
2022/07/15 05:34:30;;;;;;;0.20;0.20;;;19.60;99.90;;;;;;4997590;28;20184;-90
2022/07/15 05:36:56;;;;;;;0.33;0.23;;;18.00;99.90;;;;;;4997785;28;20691;-93
2022/07/15 05:39:22;;;;;;;0.93;0.30;;;17.70;99.90;;;;;;4983533;28;20279;-91
2022/07/15 05:41:48;;;;;;;0.20;0.20;;;18.10;99.90;;;;;;5006348;28;20318;-90
2022/07/15 05:44:14;;;;;;;0.30;0.30;;;17.60;99.90;;;;;;5032941;28;20250;-91
2022/07/15 05:46:40;;;;;;;2.00;0.30;;;18.70;99.90;;;;;;4999039;28;20279;-90
2022/07/15 05:49:06;;;;;;;1.00;0.50;;;20.60;99.90;;;;;;4962732;28;20266;-92
2022/07/15 05:51:33;;;;;;;2.90;0.43;;;22.60;99.90;;;;;;5031930;28;20217;-92
2022/07/15 05:53:59;;;;;;;1.83;0.50;;;22.90;99.90;;;;;;4982991;28;20220;-93
2022/07/15 05:56:26;;;;;;;0.93;0.30;;;23.30;99.90;;;;;;4980677;28;20208;-93
2022/07/15 05:58:52;;;;;;;1.43;0.50;;;23.80;99.90;;;;;;4997434;28;20248;-89
2022/07/15 06:01:18;;;;;;;2.27;0.70;;;22.10;99.90;;;;;;5004523;28;20454;-91
2022/07/15 06:03:43;;;;;;;0.33;0.33;;;21.20;99.90;;;;;;4983135;28;20218;-91
2022/07/15 06:06:09;;;;;;;0.40;0.40;;;21.00;99.90;;;;;;4966620;28;20231;-90
2022/07/15 06:08:35;;;;;;;3.93;0.87;;;22.10;99.90;;;;;;4980062;28;20226;-91
2022/07/15 06:11:01;;;;;;;0.30;0.30;;;23.40;99.90;;;;;;5028021;28;20299;-92
2022/07/15 06:13:27;;;;;;;2.20;0.40;;;22.80;99.90;;;;;;4983284;28;20339;-92
2022/07/15 06:15:53;;;;;;;2.60;0.43;;;23.10;99.90;;;;;;4984234;28;20262;-92
2022/07/15 06:18:19;;;;;;;0.40;0.40;;;23.50;99.90;;;;;;4982353;28;20293;-94
2022/07/15 06:20:45;;;;;;;0.38;0.35;;;24.30;99.90;;;;;;5015020;28;20322;-94
2022/07/15 06:23:11;;;;;;;2.20;0.45;;;24.70;99.90;;;;;;5016865;28;20250;-91
2022/07/15 06:25:37;;;;;;;0.30;0.30;;;24.70;99.90;;;;;;4986146;28;20196;-91
2022/07/15 06:28:03;;;;;;;0.47;0.47;;;24.20;99.90;;;;;;4993233;28;20216;-90
2022/07/15 06:30:30;;;;;;;0.90;0.68;;;23.00;99.90;;;;;;4996793;28;20207;-91
2022/07/15 06:32:58;;;;;;;3.50;0.60;;;22.90;99.90;;;;;;5021454;28;20257;-95
2022/07/15 06:35:24;;;;;;;0.95;0.50;;;24.80;99.90;;;;;;5018804;28;20204;-93
2022/07/15 06:37:51;;;;;;;4.38;0.70;;;24.20;99.90;;;;;;5015876;28;20241;-93
2022/07/15 06:40:17;;;;;;;2.47;0.40;;;23.30;99.90;;;;;;5022169;28;20242;-92
2022/07/15 06:42:43;;;;;;;0.45;0.20;;;21.80;99.90;;;;;;5021980;28;20214;-93
2022/07/15 06:45:10;;;;;;;2.95;0.40;;;21.00;99.90;;;;;;5018356;28;20221;-91
2022/07/15 06:47:39;;;;;;;0.30;0.30;;;19.70;99.90;;;;;;5040602;28;20215;-93
2022/07/15 06:50:05;;;;;;;0.30;0.30;;;19.40;99.90;;;;;;5025421;28;20680;-91
2022/07/15 06:52:30;;;;;;;0.87;0.40;;;20.40;99.90;;;;;;5004049;28;20191;-90
2022/07/15 06:54:56;;;;;;;1.60;0.67;;;20.30;99.90;;;;;;5012731;28;20297;-91
2022/07/15 06:57:22;;;;;;;1.40;0.40;;;19.80;99.90;;;;;;5018373;28;20215;-92
2022/07/15 06:59:48;;;;;;;0.63;0.43;;;21.20;99.90;;;;;;5006282;28;20221;-92
2022/07/15 07:02:14;;;;;;;3.50;0.47;;;22.60;99.90;;;;;;5003314;28;20627;-90
2022/07/15 07:04:42;;;;;;;0.60;0.60;;;22.40;99.90;;;;;;5020107;28;20179;-92
2022/07/15 07:07:08;;;;;;;0.30;0.30;;;21.50;99.90;;;;;;5021152;28;20211;-90
2022/07/15 07:09:34;;;;;;;0.40;0.40;;;20.40;99.90;;;;;;5021649;28;20284;-95
2022/07/15 07:11:59;;;;;;;0.67;0.47;;;20.00;99.90;;;;;;5035486;28;20231;-91
2022/07/15 07:14:25;;;;;;;0.20;0.20;;;19.00;99.90;;;;;;5022340;28;20601;-91
2022/07/15 07:16:52;;;;;;;0.63;0.40;;;18.50;99.90;;;;;;5004612;28;20198;-94
2022/07/15 07:19:19;;;;;;;1.17;0.50;;;18.90;99.90;;;;;;5018827;28;20214;-92
2022/07/15 07:21:45;;;;;;;1.27;0.43;;;21.00;99.90;;;;;;5020097;28;20203;-90
2022/07/15 07:24:11;;;;;;;0.60;0.60;;;20.70;99.90;;;;;;5001883;28;20301;-92
2022/07/15 07:26:37;;;;;;;0.30;0.30;;;20.60;99.90;;;;;;5004527;28;20214;-92
2022/07/15 07:29:03;;;;;;;0.30;0.30;;;20.70;99.90;;;;;;5018326;28;20207;-92
2022/07/15 07:31:29;;;;;;;0.30;0.30;;;19.80;99.90;;;;;;5019764;28;20183;-92
2022/07/15 07:33:56;;;;;;;0.27;0.27;;;20.50;99.90;;;;;;5017648;28;20559;-92
2022/07/15 07:36:22;;;;;;;0.93;0.40;;;22.90;99.90;;;;;;5014846;28;20698;-92
2022/07/15 07:38:48;;;;;;;1.17;0.35;;;23.20;99.90;;;;;;5036475;28;21061;-92
2022/07/15 07:41:14;;;;;;;0.93;0.32;;;23.60;99.90;;;;;;5019676;28;20191;-91
2022/07/15 07:43:40;;;;;;;3.35;0.57;;;21.90;99.90;;;;;;5017292;28;20176;-92
2022/07/15 07:46:06;;;;;;;0.22;0.22;;;21.30;99.90;;;;;;5017837;28;20275;-92
2022/07/15 07:48:32;;;;;;;0.98;0.30;;;22.40;99.90;;;;;;5017930;28;20324;-91
2022/07/15 07:50:58;;;;;;;0.50;0.50;;;23.00;99.90;;;;;;5016675;28;20251;-91
2022/07/15 07:53:24;;;;;;;0.50;0.50;;;22.20;99.90;;;;;;5018439;28;20214;-93
2022/07/15 07:55:50;;;;;;;0.30;0.30;;;22.70;99.90;;;;;;5036543;28;20260;-93
2022/07/15 07:58:17;;;;;;;1.95;0.40;;;23.60;99.90;;;;;;5020971;28;20258;-94
2022/07/15 08:00:44;;;;;;;1.30;0.20;;;22.70;99.90;;;;;;5020251;28;20214;-92
2022/07/15 08:03:09;;;;;;;0.73;0.40;;;21.20;99.90;;;;;;5020729;28;20306;-92
2022/07/15 08:05:35;;;;;;;0.60;0.60;;;21.70;99.90;;;;;;5017613;28;20373;-91
2022/07/15 08:08:12;;;;;;;0.30;0.30;;;21.70;99.90;;;;;;5035762;28;20204;-92
2022/07/15 08:10:39;;;;;;;0.20;0.20;;;20.40;99.90;;;;;;5019489;28;20376;-92
2022/07/15 08:13:05;;;;;;;3.73;0.47;;;19.90;99.90;;;;;;5017509;28;20278;-92
2022/07/15 08:15:31;;;;;;;0.63;0.30;;;19.70;99.90;;;;;;4999945;28;20215;-93
2022/07/15 08:17:57;;;;;;;0.50;0.30;;;20.60;99.90;;;;;;4987593;28;20215;-93
2022/07/15 08:20:23;;;;;;;0.50;0.50;;;21.90;99.90;;;;;;5019152;28;20363;-91
2022/07/15 08:22:49;;;;;;;0.40;0.40;;;21.60;99.90;;;;;;5021134;28;20194;-90
2022/07/15 08:25:14;;;;;;;1.33;0.50;;;21.00;99.90;;;;;;5019787;28;20297;-91
2022/07/15 08:27:40;;;;;;;1.33;0.40;;;22.50;99.90;;;;;;4985447;28;20215;-91
2022/07/15 08:30:06;;;;;;;1.35;0.63;;;22.70;99.90;;;;;;5001242;28;20310;-91
2022/07/15 08:32:32;;;;;;;0.43;0.43;;;21.90;99.90;;;;;;5019287;28;20207;-90
2022/07/15 08:35:00;;;;;;;0.20;0.20;;;21.10;99.90;;;;;;4990365;28;20648;-94
2022/07/15 08:37:26;;;;;;;0.50;0.30;;;21.20;99.90;;;;;;5002325;28;20179;-91
2022/07/15 08:39:52;;;;;;;0.77;0.40;;;21.40;99.90;;;;;;5004158;28;20570;-92
2022/07/15 08:42:18;;;;;;;0.30;0.30;;;22.30;99.90;;;;;;4998924;28;20215;-91
2022/07/15 08:44:44;;;;;;;0.33;0.33;;;22.90;99.90;;;;;;4982522;28;20249;-91
2022/07/15 08:47:10;;;;;;;0.40;0.40;;;23.60;99.90;;;;;;5002008;28;20222;-91
2022/07/15 08:49:39;;;;;;;0.40;0.40;;;23.50;99.90;;;;;;4999432;28;20770;-91
2022/07/15 08:52:05;;;;;;;0.47;0.47;;;23.60;99.90;;;;;;5020426;28;20203;-92
2022/07/15 08:54:32;;;;;;;4.10;0.40;;;22.00;99.90;;;;;;5000318;28;20237;-92
2022/07/15 08:56:58;;;;;;;1.00;0.30;;;21.30;99.90;;;;;;5000094;28;20313;-91
2022/07/15 08:59:24;;;;;;;2.05;0.40;;;21.70;99.90;;;;;;5001046;28;20232;-92
2022/07/15 09:01:50;;;;;;;0.43;0.43;;;21.80;99.90;;;;;;5017558;28;20643;-91
2022/07/15 09:04:17;;;;;;;2.30;0.50;;;21.30;99.90;;;;;;5001355;28;20256;-90
2022/07/15 09:06:49;;;;;;;8.98;0.60;;;21.20;99.90;;;;;;5002180;28;20204;-91
2022/07/15 09:09:33;;;;;;;0.68;0.47;;;21.50;99.90;;;;;;5024948;28;20222;-92
2022/07/15 09:12:06;;;;;;;0.40;0.40;;;22.70;99.90;;;;;;5032895;28;21022;-92
2022/07/15 09:14:34;;;;;;;0.40;0.40;;;22.30;99.90;;;;;;5017359;28;20223;-90
2022/07/15 09:17:08;;;;;;;2.28;1.02;;;22.40;99.90;;;;;;5018724;28;20180;-92
2022/07/15 09:19:59;;;;;;;0.40;0.40;;;22.70;99.90;;;;;;5025564;28;20187;-92
2022/07/15 09:22:26;;;;;;;0.38;0.30;;;23.20;99.90;;;;;;5017883;28;20223;-90
2022/07/15 09:25:07;;;;;;;0.85;0.65;;;23.80;99.90;;;;;;4983702;28;20211;-90
2022/07/15 09:27:39;;;;;;;0.55;0.50;;;24.00;99.90;;;;;;5033352;28;20237;-91
2022/07/15 09:36:09;;;;;;;1.25;0.60;;;24.00;99.90;;;;;;5020184;28;20219;-91
2022/07/15 09:38:41;;;;;;;0.38;0.38;;;25.90;99.90;;;;;;5013428;28;20276;-93
2022/07/15 09:41:13;;;;;;;2.92;0.50;;;25.40;99.90;;;;;;5016148;28;20282;-93
2022/07/15 09:43:49;;;;;;;0.40;0.40;;;23.60;99.90;;;;;;5023165;28;20546;-93
2022/07/15 09:46:15;;;;;;;0.38;0.38;;;24.00;99.90;;;;;;5036393;28;20215;-91
2022/07/15 09:48:47;;;;;;;0.50;0.50;;;23.30;99.90;;;;;;5007680;28;20331;-92
2022/07/15 09:51:14;;;;;;;1.85;0.60;;;22.20;99.90;;;;;;5041536;28;20777;-91
2022/07/15 09:53:41;;;;;;;2.42;0.40;;;23.40;99.90;;;;;;5000986;28;20252;-94
2022/07/15 09:56:10;;;;;;;4.95;0.70;;;24.00;99.90;;;;;;5001591;28;20195;-92
2022/07/15 09:58:40;;;;;;;1.58;1.00;;;25.10;99.90;;;;;;5023165;28;20198;-94
2022/07/15 10:01:08;;;;;;;1.10;0.55;;;23.30;99.90;;;;;;5005883;28;20257;-93
2022/07/15 10:03:35;;;;;;;0.35;0.32;;;22.30;99.90;;;;;;5004898;28;20678;-92
2022/07/15 10:06:02;;;;;;;0.45;0.45;;;22.40;99.90;;;;;;5004202;28;20215;-91
2022/07/15 10:08:33;;;;;;;1.65;0.40;;;21.70;99.90;;;;;;5005519;28;20759;-93
2022/07/15 10:10:59;;;;;;;0.73;0.47;;;22.10;99.90;;;;;;5021458;28;20724;-91
2022/07/15 10:13:51;;;;;;;0.50;0.50;;;21.40;99.90;;;;;;5005849;28;20188;-92
2022/07/15 10:16:30;;;;;;;0.80;0.52;;;21.60;99.90;;;;;;5022677;28;20254;-93
2022/07/15 10:19:19;;;;;;;0.98;0.90;;;22.00;99.90;;;;;;5038863;28;20670;-93
2022/07/15 10:22:17;;;;;;;0.70;0.70;;;21.70;99.90;;;;;;5020330;28;20207;-90
2022/07/15 10:24:57;;;;;;;2.15;0.60;;;21.70;99.90;;;;;;5007739;28;20216;-90
2022/07/15 10:27:41;;;;;;;0.52;0.40;;;21.60;99.90;;;;;;5027665;28;20233;-93
2022/07/15 10:30:07;;;;;;;0.55;0.55;;;22.00;99.90;;;;;;5028059;28;20223;-92
2022/07/15 10:33:02;;;;;;;0.77;0.70;;;21.00;99.90;;;;;;5002279;28;20238;-90
2022/07/15 10:35:37;;;;;;;0.50;0.50;;;21.00;99.90;;;;;;5022285;28;20211;-91
2022/07/15 10:38:24;;;;;;;1.07;0.70;;;21.00;99.90;;;;;;5028847;28;20190;-91
2022/07/15 10:41:12;;;;;;;1.47;0.40;;;20.50;99.90;;;;;;5035413;28;20299;-94
2022/07/15 10:43:39;;;;;;;0.83;0.60;;;20.30;99.90;;;;;;5022036;28;20662;-89
2022/07/15 10:46:18;;;;;;;0.60;0.60;;;20.20;99.90;;;;;;5036851;28;20223;-91
2022/07/15 10:48:49;;;;;;;0.77;0.70;;;20.60;99.90;;;;;;5035045;28;20210;-90
2022/07/15 10:51:36;;;;;;;0.67;0.67;;;20.60;99.90;;;;;;5005558;28;20222;-89
2022/07/15 10:54:04;;;;;;;0.83;0.83;;;21.60;99.90;;;;;;5020584;28;20704;-92
2022/07/15 10:56:37;;;;;;;0.60;0.47;;;22.20;99.90;;;;;;5021002;28;20218;-90
2022/07/15 10:59:23;;;;;;;0.93;0.50;;;21.50;99.90;;;;;;5022047;28;20195;-88
2022/07/15 11:02:10;;;;;;;3.57;0.80;;;20.90;99.90;;;;;;5028311;28;20191;-88
2022/07/15 11:04:36;;;;;;;0.57;0.57;;;21.50;99.90;;;;;;5018179;28;20230;-88
2022/07/15 11:07:01;;;;;;;0.93;0.40;;;21.70;99.90;;;;;;5021371;28;20629;-92
2022/07/15 11:09:54;;;;;;;4.50;0.70;;;20.60;99.90;;;;;;5034319;28;20235;-88
2022/07/15 11:12:31;;;;;;;0.50;0.43;;;20.40;99.90;;;;;;5019582;28;20338;-87
2022/07/15 11:14:58;;;;;;;2.23;0.67;;;19.80;99.90;;;;;;5027700;28;20226;-87
2022/07/15 11:17:37;;;;;;;1.80;0.60;;;19.80;99.90;;;;;;5033748;28;20223;-88
2022/07/15 11:20:11;;;;;;;1.47;0.80;;;19.80;99.90;;;;;;5020335;28;20206;-87
2022/07/15 11:22:48;;;;;;;4.47;1.10;;;19.90;99.90;;;;;;5018132;28;20182;-87
2022/07/15 11:25:18;;;;;;;0.60;0.60;;;19.90;99.90;;;;;;5027544;28;20304;-88
2022/07/15 11:27:57;;;;;;;1.30;0.50;;;19.60;99.90;;;;;;5033030;28;20222;-88
2022/07/15 11:30:23;;;;;;;3.57;0.67;;;19.80;99.90;;;;;;5020301;28;20226;-87
2022/07/15 11:32:56;;;;;;;1.73;0.63;;;19.70;99.90;;;;;;5001632;28;20230;-88
2022/07/15 11:35:21;;;;;;;0.60;0.60;;;19.60;99.90;;;;;;5027381;28;20293;-87
2022/07/15 11:37:47;;;;;;;2.73;1.30;;;19.50;99.90;;;;;;5001954;28;20329;-87
2022/07/15 11:45:49;;;;;;;1.53;0.50;;;20.00;99.90;;;;;;5017967;28;20555;-88
2022/07/15 11:48:15;;;;;;;0.80;0.80;;;19.90;99.90;;;;;;5002033;28;20233;-88
2022/07/15 11:50:57;;;;;;;2.10;0.43;;;19.80;99.90;;;;;;5033482;28;20210;-88
2022/07/15 11:53:24;;;;;;;2.37;0.60;;;19.70;99.90;;;;;;5002456;28;20567;-87
2022/07/15 11:55:55;;;;;;;1.40;0.70;;;19.70;99.90;;;;;;5001886;28;20190;-87
2022/07/15 11:58:34;;;;;;;2.43;1.10;;;19.70;99.90;;;;;;5019088;28;20701;-86
2022/07/15 12:01:07;;;;;;;1.40;0.83;;;19.40;99.90;;;;;;5018242;28;20223;-86
2022/07/15 12:03:42;;;;;;;0.93;0.70;;;19.50;99.90;;;;;;5017710;28;20225;-88
2022/07/15 12:06:23;;;;;;;7.90;0.77;;;19.40;99.90;;;;;;5020041;28;20219;-91
2022/07/15 12:08:54;;;;;;;0.80;0.60;;;19.40;99.90;;;;;;5026291;28;20788;-90
2022/07/15 12:11:20;;;;;;;0.87;0.67;;;19.50;99.90;;;;;;5018765;28;20254;-90
2022/07/15 12:14:05;;;;;;;3.57;1.30;;;19.50;99.90;;;;;;5038126;28;20268;-90
2022/07/15 12:16:44;;;;;;;1.07;0.80;;;19.80;99.90;;;;;;5017668;28;20207;-90
2022/07/15 12:19:17;;;;;;;2.47;0.77;;;20.20;99.90;;;;;;5017326;28;20214;-91
2022/07/15 12:21:46;;;;;;;0.67;0.67;;;20.00;99.90;;;;;;5016974;28;20304;-90
2022/07/15 12:24:14;;;;;;;2.50;0.67;;;19.90;99.90;;;;;;5017627;28;20210;-90
2022/07/15 12:26:54;;;;;;;1.13;0.73;;;20.20;99.90;;;;;;5034170;28;20218;-89
2022/07/15 12:29:38;;;;;;;0.53;0.53;;;20.20;99.90;;;;;;5020437;28;20223;-89
2022/07/15 12:32:13;;;;;;;0.93;0.70;;;20.40;99.90;;;;;;5036344;28;20187;-90
2022/07/15 12:34:52;;;;;;;2.93;0.80;;;20.70;99.90;;;;;;5026177;28;20182;-90
2022/07/15 12:37:30;;;;;;;0.60;0.53;;;20.60;99.90;;;;;;5025422;28;20222;-90
2022/07/15 12:39:57;;;;;;;1.10;0.43;;;20.90;99.90;;;;;;5034439;28;20725;-90
2022/07/15 12:42:23;;;;;;;0.53;0.53;;;21.10;99.90;;;;;;5034645;28;20223;-90
2022/07/15 12:45:34;;;;;;;1.00;0.77;;;20.60;99.90;;;;;;5000072;28;20237;-89
2022/07/15 12:48:09;;;;;;;0.53;0.40;;;20.20;99.90;;;;;;5029365;28;20698;-90
2022/07/15 12:50:45;;;;;;;1.20;0.77;;;20.50;99.90;;;;;;5015625;28;20207;-90
2022/07/15 12:53:11;;;;;;;1.13;0.60;;;20.70;99.90;;;;;;5033982;28;20661;-90
2022/07/15 12:55:42;;;;;;;1.43;0.70;;;20.90;99.90;;;;;;5000508;28;20179;-90
2022/07/15 12:58:11;;;;;;;1.53;0.70;;;20.60;99.90;;;;;;5017314;28;20257;-90
2022/07/15 13:00:38;;;;;;;1.80;0.70;;;20.50;99.90;;;;;;5016047;28;20214;-90
2022/07/15 13:03:29;;;;;;;1.47;0.83;;;20.60;99.90;;;;;;5016691;28;20210;-90
2022/07/15 13:05:55;;;;;;;0.73;0.73;;;20.80;99.90;;;;;;5021531;28;20625;-90
2022/07/15 13:08:25;;;;;;;2.10;1.17;;;20.60;99.90;;;;;;5000858;28;20280;-89
2022/07/15 13:10:53;;;;;;;3.27;0.80;;;20.50;99.90;;;;;;5017346;28;20227;-89